Visit the IPS Meteostar Home Page IPSM Truckee-Tahoe FORECAST

Incline Village, Nevada

32

72

78

79

76

67

67

68

32
32
33
35
38
38
34
37

10 miles away at Truckee-Tahoe 9:35 GMT

Weather:

 Clear 

Wind:

CALM

Temperature:

32 ° F

Pressure:

NA

Dew Point:

23 ° F

Relative Humidity:

66

Feels Like:

32 ° F

Visibility:

10 miles


Aviation Observations:

KTRK 250935Z AUTO 00000KT 10SM CLR 00/M05 A3025 RMK AO2 =

National Weather Service Forecast:
Greater Lake Tahoe Area

greater lake tahoe area- including the cities of south lake tahoe, tahoe city, truckee, markleeville, stateline, glenbrook, and incline village
331 PM PDT MON SEP 24 2018

TONIGHT

Clear. Lows 27 to 37. Northeast winds 10 to 15 mph.

TUESDAY

Sunny. Highs 67 to 77. Light winds becoming east around 10 mph in the afternoon.

TUESDAY NIGHT

Clear. Lows 28 to 38. Northeast winds around 10 mph in the evening becoming light.

WEDNESDAY

Sunny. Highs 73 to 83. Light winds.

WEDNESDAY NIGHT

Clear. Lows 30 to 40. West winds around 10 mph in the evening becoming light.

THURSDAY

Sunny. Highs 74 to 84.

THURSDAY NIGHT

Clear in the evening then becoming partly cloudy. Lows 33 to 43.

FRIDAY AND FRIDAY NIGHT

Partly cloudy. Highs 71 to 81. Lows 33 to 43.

SATURDAY

Partly cloudy in the morning then becoming sunny. highs 62 to 72.

SATURDAY NIGHT AND SUNDAY

Breezy, clear. Lows 29 to 39. Highs 62 to 72.

SUNDAY NIGHT AND MONDAY

Partly cloudy. Lows 32 to 42. Highs 63 to 73.


Visit the IPS Meteostar Home Page